createdAt,value
2022-11-16T00:00:11.392Z,79.32
2022-11-16T00:03:06.159Z,79.28
2022-11-16T00:05:38.379Z,79.24
2022-11-16T00:08:10.445Z,79.12
2022-11-16T00:10:42.946Z,79.07
2022-11-16T00:13:15.113Z,79.28
2022-11-16T00:15:57.215Z,79.40
2022-11-16T00:18:29.628Z,79.28
2022-11-16T00:21:04.289Z,79.28
2022-11-16T00:23:39.383Z,79.18
2022-11-16T00:26:10.778Z,79.09
2022-11-16T00:28:43.304Z,79.20
2022-11-16T00:31:15.728Z,79.28
2022-11-16T00:33:48.588Z,79.10
2022-11-16T00:36:21.371Z,79.13
2022-11-16T00:38:55.406Z,79.09
2022-11-16T00:41:27.704Z,78.94
2022-11-16T00:43:59.974Z,79.04
2022-11-16T00:46:32.448Z,78.98
2022-11-16T00:49:05.680Z,79.03
2022-11-16T00:51:39.218Z,79.10
2022-11-16T00:54:12.158Z,78.98
2022-11-16T00:56:44.809Z,78.87
2022-11-16T00:59:17.360Z,78.90
2022-11-16T01:01:49.755Z,79.05
2022-11-16T01:04:22.184Z,78.96
2022-11-16T01:06:54.384Z,78.98
2022-11-16T01:09:30.154Z,79.08
2022-11-16T01:12:11.105Z,78.98
2022-11-16T01:14:45.324Z,79.01
2022-11-16T01:17:17.565Z,79.06
2022-11-16T01:19:49.682Z,78.83
2022-11-16T01:22:21.953Z,79.14
2022-11-16T01:24:54.121Z,78.91
2022-11-16T01:27:27.801Z,78.97
2022-11-16T01:30:00.806Z,78.86
2022-11-16T01:32:33.236Z,78.95
2022-11-16T01:35:06.737Z,79.07
2022-11-16T01:37:40.262Z,79.01
2022-11-16T01:40:14.635Z,79.00
2022-11-16T01:42:48.462Z,79.20
2022-11-16T01:45:23.576Z,79.13
2022-11-16T01:47:58.212Z,79.04
2022-11-16T01:50:35.802Z,78.79
2022-11-16T01:53:10.171Z,78.84
2022-11-16T01:55:53.445Z,78.97
2022-11-16T01:58:34.500Z,78.89
2022-11-16T02:01:22.091Z,78.98
2022-11-16T02:03:57.089Z,78.83
2022-11-16T02:06:59.412Z,78.96
2022-11-16T02:09:58.480Z,79.20
2022-11-16T02:13:01.011Z,79.21
2022-11-16T02:15:42.474Z,79.27
2022-11-16T02:18:30.101Z,79.16
2022-11-16T02:21:27.717Z,79.27
2022-11-16T02:24:12.508Z,79.16
2022-11-16T02:27:23.074Z,79.11
2022-11-16T02:29:57.267Z,79.18
2022-11-16T02:32:32.657Z,79.16
2022-11-16T02:35:11.074Z,79.19
2022-11-16T02:37:49.847Z,79.35
2022-11-16T02:40:25.162Z,79.42
2022-11-16T02:43:06.445Z,79.23
2022-11-16T02:45:42.993Z,79.19
2022-11-16T02:48:22.253Z,79.22
2022-11-16T02:50:55.010Z,79.11
2022-11-16T02:53:28.302Z,79.26
2022-11-16T02:56:01.215Z,79.26
2022-11-16T02:58:34.053Z,79.10
2022-11-16T03:01:10.055Z,79.17
2022-11-16T03:03:46.601Z,79.23
2022-11-16T03:06:24.377Z,79.17
2022-11-16T03:09:05.580Z,79.10
2022-11-16T03:12:00.637Z,79.12
2022-11-16T03:14:41.740Z,79.44
2022-11-16T03:17:20.719Z,79.32
2022-11-16T03:20:00.341Z,79.31
2022-11-16T03:22:40.285Z,79.51
2022-11-16T03:25:17.494Z,79.35
2022-11-16T03:27:55.629Z,79.23
2022-11-16T03:30:33.149Z,79.18
2022-11-16T03:33:15.863Z,79.37
2022-11-16T03:35:55.227Z,79.29
2022-11-16T03:38:29.912Z,79.31
2022-11-16T03:41:07.062Z,79.33
2022-11-16T03:43:40.538Z,79.06
2022-11-16T03:46:13.472Z,79.27
2022-11-16T03:48:45.845Z,79.41
2022-11-16T03:51:28.511Z,79.34
2022-11-16T03:54:00.729Z,79.42
2022-11-16T03:56:33.587Z,79.20
2022-11-16T03:59:05.759Z,79.31
2022-11-16T04:01:43.292Z,79.32
2022-11-16T04:04:31.087Z,79.22
2022-11-16T04:07:21.623Z,79.06
2022-11-16T04:10:11.264Z,79.20
2022-11-16T04:13:04.626Z,78.94
2022-11-16T04:15:54.486Z,79.26
2022-11-16T04:18:44.754Z,79.12
2022-11-16T04:21:42.393Z,79.12
2022-11-16T04:24:18.352Z,79.11
2022-11-16T04:27:12.204Z,78.94
2022-11-16T04:29:45.240Z,79.13
2022-11-16T04:32:35.309Z,78.85
2022-11-16T04:35:25.905Z,79.09
2022-11-16T04:38:00.056Z,78.58
2022-11-16T04:40:38.312Z,78.81
2022-11-16T04:43:10.730Z,78.86
2022-11-16T04:46:02.302Z,78.88
2022-11-16T04:48:39.257Z,78.79
2022-11-16T04:51:11.911Z,78.93
2022-11-16T04:53:44.329Z,78.79
2022-11-16T04:56:22.190Z,78.69
2022-11-16T04:58:54.562Z,78.80
2022-11-16T05:01:40.797Z,78.73
2022-11-16T05:04:13.584Z,78.82
2022-11-16T05:06:45.890Z,78.50
2022-11-16T05:09:18.339Z,78.60
2022-11-16T05:11:51.174Z,78.66
2022-11-16T05:14:23.418Z,78.55
2022-11-16T05:16:56.253Z,78.72
2022-11-16T05:19:46.776Z,78.55
2022-11-16T05:22:19.352Z,78.63
2022-11-16T05:24:51.650Z,78.23
2022-11-16T05:27:25.690Z,78.33
2022-11-16T05:29:58.576Z,78.46
2022-11-16T05:32:31.385Z,78.49
2022-11-16T05:35:04.879Z,78.30
2022-11-16T05:37:38.429Z,78.22
2022-11-16T05:40:13.788Z,78.28
2022-11-16T05:42:50.859Z,78.15
2022-11-16T05:45:23.408Z,78.19
2022-11-16T05:47:56.345Z,78.30
2022-11-16T05:50:28.580Z,78.35
2022-11-16T05:53:23.491Z,78.15
2022-11-16T05:55:56.187Z,78.07
2022-11-16T05:58:28.855Z,78.24
2022-11-16T06:01:02.351Z,78.16
2022-11-16T06:03:35.796Z,78.11
2022-11-16T06:08:59.164Z,78.07
2022-11-16T06:11:35.757Z,78.13
2022-11-16T06:14:09.255Z,78.11
2022-11-16T06:16:41.730Z,77.79
2022-11-16T06:19:14.485Z,77.82
2022-11-16T06:21:46.685Z,77.66
2022-11-16T06:24:22.355Z,77.65
2022-11-16T06:26:54.650Z,77.64
2022-11-16T06:29:27.177Z,77.63
2022-11-16T06:31:59.652Z,77.39
2022-11-16T06:34:31.974Z,77.24
2022-11-16T06:37:05.678Z,77.35
2022-11-16T06:39:38.180Z,77.26
2022-11-16T06:42:10.757Z,77.42
2022-11-16T06:44:43.823Z,77.29
2022-11-16T06:47:16.681Z,77.08
2022-11-16T06:49:48.926Z,77.05
2022-11-16T06:52:25.014Z,77.13
2022-11-16T06:54:57.230Z,77.17
2022-11-16T06:57:29.885Z,77.16
2022-11-16T07:00:02.438Z,76.98
2022-11-16T07:02:37.218Z,76.98
2022-11-16T07:05:10.854Z,76.88
2022-11-16T07:07:44.297Z,76.99
2022-11-16T07:10:16.743Z,76.80
2022-11-16T07:12:49.396Z,76.91
2022-11-16T07:15:22.412Z,76.87
2022-11-16T07:17:54.604Z,76.79
2022-11-16T07:20:27.215Z,76.74
2022-11-16T07:23:02.627Z,76.66
2022-11-16T07:25:35.692Z,76.64
2022-11-16T07:28:08.577Z,76.62
2022-11-16T07:30:41.492Z,76.55
2022-11-16T07:33:19.415Z,76.33
2022-11-16T07:36:18.031Z,76.45
2022-11-16T07:38:50.233Z,76.61
2022-11-16T07:41:23.337Z,76.32
2022-11-16T07:44:05.613Z,76.37
2022-11-16T07:46:48.165Z,76.44
2022-11-16T07:49:22.010Z,76.47
2022-11-16T07:51:58.609Z,76.63
2022-11-16T07:54:40.121Z,76.51
2022-11-16T07:57:12.752Z,76.40
2022-11-16T07:59:46.047Z,76.54
2022-11-16T08:02:18.216Z,76.43
2022-11-16T08:04:51.179Z,76.38
2022-11-16T08:07:24.015Z,76.28
2022-11-16T08:10:00.271Z,76.55
2022-11-16T08:12:32.825Z,76.38
2022-11-16T08:15:05.536Z,76.40
2022-11-16T08:17:37.972Z,76.50
2022-11-16T08:20:12.751Z,76.47
2022-11-16T08:22:45.902Z,76.49
2022-11-16T08:25:18.505Z,76.31
2022-11-16T08:27:50.647Z,76.38
2022-11-16T08:30:24.020Z,76.38
2022-11-16T08:32:56.520Z,76.35
2022-11-16T08:35:28.739Z,76.38
2022-11-16T08:38:07.693Z,76.43
2022-11-16T08:40:58.215Z,76.41
2022-11-16T08:43:31.253Z,76.48
2022-11-16T08:46:04.424Z,76.62
2022-11-16T08:48:37.270Z,76.49
2022-11-16T08:51:19.669Z,76.38
2022-11-16T08:54:00.150Z,76.36
2022-11-16T08:56:32.934Z,76.34
2022-11-16T08:59:05.046Z,76.32
2022-11-16T09:01:37.591Z,76.17
2022-11-16T09:04:10.104Z,76.14
2022-11-16T09:06:42.326Z,76.11
2022-11-16T09:09:14.490Z,76.10
2022-11-16T09:11:46.586Z,75.94
2022-11-16T09:14:18.754Z,75.79
2022-11-16T09:16:50.946Z,75.99
2022-11-16T09:19:23.769Z,75.84
2022-11-16T09:21:55.848Z,75.85
2022-11-16T09:24:28.269Z,76.02
2022-11-16T09:27:02.026Z,75.99
2022-11-16T09:29:34.114Z,76.02
2022-11-16T09:32:06.904Z,76.08
2022-11-16T09:34:39.336Z,76.06
2022-11-16T09:37:11.518Z,75.95
2022-11-16T09:39:43.549Z,76.00
2022-11-16T09:42:29.854Z,75.94
2022-11-16T09:45:06.496Z,75.91
2022-11-16T09:47:49.242Z,75.66
2022-11-16T09:50:40.083Z,75.92
2022-11-16T09:53:27.733Z,75.87
2022-11-16T09:56:05.670Z,75.65
2022-11-16T09:58:45.206Z,75.65
2022-11-16T10:01:28.328Z,75.47
2022-11-16T10:04:06.691Z,75.70
2022-11-16T10:06:48.451Z,75.56
2022-11-16T10:09:21.118Z,75.57
2022-11-16T10:12:08.082Z,75.53
2022-11-16T10:15:37.546Z,75.69
2022-11-16T10:18:19.132Z,75.89
2022-11-16T10:21:08.835Z,75.62
2022-11-16T10:23:57.666Z,75.61
2022-11-16T10:26:38.679Z,75.61
2022-11-16T10:29:23.911Z,75.64
2022-11-16T10:32:11.626Z,75.74
2022-11-16T10:34:51.140Z,75.56
2022-11-16T10:37:25.664Z,75.51
2022-11-16T10:39:57.832Z,75.42
2022-11-16T10:42:36.146Z,75.40
2022-11-16T10:45:20.734Z,75.35
2022-11-16T10:47:58.326Z,75.48
2022-11-16T10:50:36.180Z,75.67
2022-11-16T10:53:13.132Z,75.46
2022-11-16T10:55:45.658Z,75.47
2022-11-16T10:58:17.816Z,75.35
2022-11-16T11:00:52.088Z,75.37
2022-11-16T11:03:34.016Z,75.02
2022-11-16T11:06:13.942Z,75.16
2022-11-16T11:08:46.083Z,75.22
2022-11-16T11:11:42.212Z,75.25
2022-11-16T11:14:16.633Z,75.16
2022-11-16T11:16:53.442Z,75.08
2022-11-16T11:19:29.959Z,74.90
2022-11-16T11:22:03.019Z,74.89
2022-11-16T11:24:44.301Z,74.83
2022-11-16T11:27:24.599Z,74.82
2022-11-16T11:29:59.775Z,74.83
2022-11-16T11:32:32.891Z,74.81
2022-11-16T11:35:06.784Z,74.89
2022-11-16T11:37:40.657Z,74.58
2022-11-16T11:40:26.205Z,74.63
2022-11-16T11:42:59.082Z,74.73
2022-11-16T11:45:48.010Z,74.50
2022-11-16T11:48:35.743Z,74.58
2022-11-16T11:51:18.048Z,74.59
2022-11-16T11:53:55.686Z,74.72
2022-11-16T11:56:30.423Z,74.50
2022-11-16T11:59:04.488Z,74.49
2022-11-16T12:01:51.352Z,74.27
2022-11-16T12:05:11.495Z,74.20
2022-11-16T12:07:57.640Z,74.14
2022-11-16T12:10:39.666Z,74.10
2022-11-16T12:13:34.597Z,74.26
2022-11-16T12:16:19.913Z,74.08
2022-11-16T12:19:04.986Z,74.10
2022-11-16T12:21:50.466Z,74.04
2022-11-16T12:24:42.628Z,73.94
2022-11-16T12:27:29.069Z,73.94
2022-11-16T12:30:09.472Z,73.94
2022-11-16T12:33:00.809Z,73.64
2022-11-16T12:35:44.704Z,74.10
2022-11-16T12:38:30.439Z,74.07
2022-11-16T12:41:21.577Z,74.11
2022-11-16T12:44:00.632Z,73.78
2022-11-16T12:46:46.649Z,73.91
2022-11-16T12:49:39.432Z,73.76
2022-11-16T12:52:26.366Z,73.61
2022-11-16T12:55:28.889Z,73.60
2022-11-16T12:58:19.726Z,73.80
2022-11-16T13:01:04.929Z,73.87
2022-11-16T13:03:43.060Z,73.69
2022-11-16T13:06:20.015Z,73.93
2022-11-16T13:09:02.883Z,73.44
2022-11-16T13:11:39.379Z,73.76
2022-11-16T13:14:18.356Z,73.77
2022-11-16T13:16:52.267Z,73.71
2022-11-16T13:19:25.258Z,73.57
2022-11-16T13:22:03.749Z,73.34
2022-11-16T13:24:53.833Z,73.36
2022-11-16T13:27:33.568Z,73.41
2022-11-16T13:30:16.037Z,73.44
2022-11-16T13:33:12.091Z,73.38
2022-11-16T13:35:44.676Z,73.23
2022-11-16T13:38:36.783Z,72.91
2022-11-16T13:41:29.530Z,72.75
2022-11-16T13:44:02.062Z,72.59
2022-11-16T13:46:55.662Z,72.84
2022-11-16T13:49:36.580Z,72.50
2022-11-16T13:52:23.146Z,72.62
2022-11-16T13:54:59.270Z,72.46
2022-11-16T13:57:32.517Z,72.70
2022-11-16T14:00:25.169Z,72.41
2022-11-16T14:05:56.941Z,72.49
2022-11-16T14:08:52.586Z,72.63
2022-11-16T14:11:38.848Z,72.39
2022-11-16T14:14:13.921Z,72.62
2022-11-16T14:16:51.267Z,72.86
2022-11-16T14:19:55.210Z,72.81
2022-11-16T14:22:54.880Z,72.54
2022-11-16T14:25:34.862Z,72.17
2022-11-16T14:28:19.471Z,72.20
2022-11-16T14:31:01.856Z,72.34
2022-11-16T14:33:37.384Z,72.34
2022-11-16T14:36:11.541Z,72.04
2022-11-16T14:38:44.810Z,72.21
2022-11-16T14:41:24.200Z,72.12
2022-11-16T14:43:58.617Z,72.07
2022-11-16T14:46:34.422Z,72.23
2022-11-16T14:49:13.527Z,72.15
2022-11-16T14:51:49.789Z,72.14
2022-11-16T14:54:38.576Z,71.78
2022-11-16T14:57:19.780Z,71.63
2022-11-16T15:00:08.634Z,71.55
2022-11-16T15:02:42.076Z,71.87
2022-11-16T15:05:18.864Z,72.09
2022-11-16T15:07:54.082Z,71.73
2022-11-16T15:10:28.346Z,71.92
2022-11-16T15:13:00.615Z,71.72
2022-11-16T15:15:34.111Z,71.63
2022-11-16T15:18:14.963Z,71.62
2022-11-16T15:20:53.026Z,71.78
2022-11-16T15:23:30.317Z,71.61
2022-11-16T15:26:03.703Z,71.49
2022-11-16T15:28:35.886Z,71.55
2022-11-16T15:31:09.628Z,71.47
2022-11-16T15:33:45.252Z,71.61
2022-11-16T15:36:38.925Z,71.39
2022-11-16T15:39:17.749Z,71.19
2022-11-16T15:41:50.345Z,71.23
2022-11-16T15:44:24.542Z,70.91
2022-11-16T15:46:58.096Z,71.30
2022-11-16T15:49:33.588Z,71.48
2022-11-16T15:52:06.166Z,71.11
2022-11-16T15:54:52.096Z,71.39
2022-11-16T15:57:25.225Z,71.55
2022-11-16T15:59:58.853Z,71.66
2022-11-16T16:02:32.864Z,71.35
2022-11-16T16:05:05.107Z,71.41
2022-11-16T16:07:41.835Z,71.43
2022-11-16T16:10:25.782Z,71.62
2022-11-16T16:12:59.434Z,71.47
2022-11-16T16:15:36.268Z,71.20
2022-11-16T16:18:40.507Z,71.40
2022-11-16T16:21:14.002Z,71.22
2022-11-16T16:23:50.072Z,71.19
2022-11-16T16:26:23.102Z,71.13
2022-11-16T16:28:55.064Z,71.00
2022-11-16T16:31:26.959Z,71.04
2022-11-16T16:33:59.657Z,71.08
2022-11-16T16:36:31.978Z,70.78
2022-11-16T16:39:04.098Z,71.00
2022-11-16T16:41:36.290Z,71.33
2022-11-16T16:44:15.116Z,71.10
2022-11-16T16:46:47.080Z,71.34
2022-11-16T16:49:19.066Z,71.16
2022-11-16T16:51:50.999Z,71.14
2022-11-16T16:54:22.915Z,71.29
2022-11-16T16:56:54.829Z,71.47
2022-11-16T16:59:27.330Z,71.14
2022-11-16T17:02:00.476Z,71.03
2022-11-16T17:04:33.382Z,71.05
2022-11-16T17:07:05.430Z,71.06
2022-11-16T17:09:37.743Z,70.98
2022-11-16T17:12:11.498Z,70.59
2022-11-16T17:14:44.038Z,71.09
2022-11-16T17:17:15.963Z,70.66
2022-11-16T17:19:48.364Z,70.75
2022-11-16T17:22:20.992Z,70.97
2022-11-16T17:24:52.954Z,70.86
2022-11-16T17:27:24.951Z,71.01
2022-11-16T17:29:58.177Z,71.02
2022-11-16T17:32:30.818Z,71.06
2022-11-16T17:35:02.809Z,71.19
2022-11-16T17:37:34.699Z,70.99
2022-11-16T17:40:08.031Z,70.79
2022-11-16T17:42:39.928Z,70.78
2022-11-16T17:45:13.142Z,71.11
2022-11-16T17:47:45.234Z,70.85
2022-11-16T17:50:17.758Z,70.86
2022-11-16T17:52:49.723Z,70.97
2022-11-16T17:55:21.815Z,70.47
2022-11-16T17:57:53.700Z,70.62
2022-11-16T18:00:25.950Z,70.82
2022-11-16T18:02:57.806Z,70.41
2022-11-16T18:05:30.948Z,70.63
2022-11-16T18:08:02.912Z,70.74
2022-11-16T18:10:36.598Z,70.83
2022-11-16T18:13:08.861Z,70.88
2022-11-16T18:15:42.562Z,70.86
2022-11-16T18:18:14.735Z,70.77
2022-11-16T18:20:50.883Z,70.68
2022-11-16T18:23:23.063Z,71.00
2022-11-16T18:25:55.129Z,70.71
2022-11-16T18:28:27.100Z,70.84
2022-11-16T18:31:06.971Z,71.23
2022-11-16T18:33:40.073Z,70.75
2022-11-16T18:36:13.233Z,70.49
2022-11-16T18:38:45.236Z,70.55
2022-11-16T18:41:20.379Z,70.74
2022-11-16T18:43:53.900Z,70.66
2022-11-16T18:46:27.529Z,70.55
2022-11-16T18:49:00.129Z,70.61
2022-11-16T18:51:32.198Z,70.91
2022-11-16T18:54:04.289Z,70.67
2022-11-16T18:56:36.406Z,70.88
2022-11-16T18:59:08.317Z,70.79
2022-11-16T19:01:40.716Z,70.94
2022-11-16T19:04:13.294Z,71.01
2022-11-16T19:06:45.283Z,70.76
2022-11-16T19:09:17.357Z,70.84
2022-11-16T19:11:50.873Z,70.99
2022-11-16T19:14:22.736Z,70.76
2022-11-16T19:16:57.245Z,70.83
2022-11-16T19:19:29.963Z,70.29
2022-11-16T19:22:02.032Z,70.34
2022-11-16T19:24:33.994Z,70.60
2022-11-16T19:27:06.122Z,70.49
2022-11-16T19:29:38.073Z,70.70
2022-11-16T19:32:10.087Z,70.98
2022-11-16T19:34:41.999Z,70.74
2022-11-16T19:37:14.144Z,70.93
2022-11-16T19:39:46.440Z,70.70
2022-11-16T19:42:18.391Z,70.80
2022-11-16T19:44:50.340Z,70.58
2022-11-16T19:47:24.294Z,70.62
2022-11-16T19:49:56.313Z,70.71
2022-11-16T19:52:28.328Z,70.51
2022-11-16T19:55:00.497Z,70.55
2022-11-16T19:57:32.845Z,70.56
2022-11-16T20:00:05.069Z,70.56
2022-11-16T20:02:38.820Z,70.27
2022-11-16T20:05:11.695Z,70.23
2022-11-16T20:07:44.780Z,70.42
2022-11-16T20:10:17.543Z,70.17
2022-11-16T20:12:50.145Z,70.18
2022-11-16T20:15:24.010Z,70.48
2022-11-16T20:17:56.053Z,70.55
2022-11-16T20:20:27.941Z,70.68
2022-11-16T20:22:59.916Z,70.63
2022-11-16T20:25:31.840Z,70.58
2022-11-16T20:28:04.695Z,70.43
2022-11-16T20:30:36.918Z,70.59
2022-11-16T20:33:08.893Z,70.50
2022-11-16T20:35:40.792Z,70.49
2022-11-16T20:38:12.782Z,70.37
2022-11-16T20:40:44.748Z,70.56
2022-11-16T20:43:17.093Z,70.44
2022-11-16T20:45:54.908Z,70.28
2022-11-16T20:48:26.834Z,69.90
2022-11-16T20:50:58.770Z,69.97
2022-11-16T20:53:30.759Z,70.03
2022-11-16T20:56:03.519Z,70.06
2022-11-16T20:58:36.298Z,70.21
2022-11-16T21:01:09.990Z,70.43
2022-11-16T21:03:44.648Z,70.15
2022-11-16T21:06:17.155Z,70.34
2022-11-16T21:08:49.478Z,70.13
2022-11-16T21:11:25.023Z,70.62
2022-11-16T21:14:15.115Z,70.26
2022-11-16T21:16:47.526Z,70.37
2022-11-16T21:19:19.540Z,70.41
2022-11-16T21:21:51.438Z,70.18
2022-11-16T21:24:24.926Z,70.25
2022-11-16T21:26:56.849Z,70.14
2022-11-16T21:29:29.120Z,70.05
2022-11-16T21:32:01.059Z,69.77
2022-11-16T21:34:38.780Z,70.05
2022-11-16T21:37:12.300Z,69.99
2022-11-16T21:39:44.552Z,70.00
2022-11-16T21:42:16.439Z,69.99
2022-11-16T21:44:48.318Z,70.22
2022-11-16T21:47:21.153Z,70.29
2022-11-16T21:50:24.842Z,70.13
2022-11-16T21:52:45.514Z,69.85
2022-11-16T21:55:17.554Z,70.14
2022-11-16T21:57:50.026Z,70.01
2022-11-16T22:00:23.170Z,69.89
2022-11-16T22:02:55.288Z,70.33
2022-11-16T22:05:45.171Z,70.06
2022-11-16T22:08:17.574Z,70.08
2022-11-16T22:10:53.384Z,70.13
2022-11-16T22:13:25.341Z,70.12
2022-11-16T22:15:57.385Z,69.96
2022-11-16T22:18:29.733Z,69.89
2022-11-16T22:21:02.178Z,69.62
2022-11-16T22:23:35.200Z,69.66
2022-11-16T22:26:10.284Z,69.89
2022-11-16T22:28:42.579Z,70.07
2022-11-16T22:31:16.002Z,69.96
2022-11-16T22:33:52.447Z,69.95
2022-11-16T22:36:24.361Z,69.84
2022-11-16T22:38:57.252Z,70.08
2022-11-16T22:41:29.228Z,70.18
2022-11-16T22:44:01.192Z,70.11
2022-11-16T22:46:33.155Z,69.92
2022-11-16T22:49:05.121Z,69.97
2022-11-16T22:51:37.210Z,69.86
2022-11-16T22:54:12.555Z,69.84
2022-11-16T22:56:45.209Z,69.75
2022-11-16T22:59:17.225Z,69.83
2022-11-16T23:01:49.390Z,69.67
2022-11-16T23:04:21.277Z,69.55
2022-11-16T23:06:56.766Z,69.63
2022-11-16T23:09:28.901Z,69.40
2022-11-16T23:12:18.441Z,69.57
2022-11-16T23:15:08.503Z,69.67
2022-11-16T23:17:40.623Z,69.55
2022-11-16T23:20:31.989Z,69.97
2022-11-16T23:23:21.518Z,69.76
2022-11-16T23:26:13.962Z,70.08
2022-11-16T23:28:46.025Z,69.46
2022-11-16T23:31:18.168Z,69.63
2022-11-16T23:33:50.240Z,69.78
2022-11-16T23:36:22.303Z,69.83
2022-11-16T23:38:54.411Z,69.51
2022-11-16T23:41:45.177Z,69.32
2022-11-16T23:44:17.373Z,69.33
2022-11-16T23:46:52.912Z,69.39
2022-11-16T23:49:25.164Z,69.01
2022-11-16T23:51:57.563Z,69.27
2022-11-16T23:54:29.648Z,69.07
2022-11-16T23:57:01.745Z,69.12
2022-11-16T23:59:33.704Z,69.48
